Station Historical Data
Daily Summary for August 1, 2017 Units:  Metric    English   Both
« Previous Day
Next Day »
Daily Weekly Monthly Yearly Custom
  High: Low: Average:
Temperature: 29.2 °C 18.7 °C 23.7 °C
Dew Point: 21 °C 17.2 °C 19.2 °C
Humidity: 93% 52% 77%
Wind Speed: 16.1km/h 0km/h 3.1km/h
Wind Gust: 20.9km/h - -
Wind- - SW
Pressure: 1018.2 hPa 1015.5 hPa -
Precipitation: 0 mm    
Historical Graphs
 
 
Tabular Data for August 1, 2017
Time Temperature Dew Point Pressure Wind Wind Speed Wind Gust Humidity Rainfall Rate (Hourly)
00:04 21.3 °C 19.1 °C 1017.2 hPa Calm     87% 0 mm
00:09 21.3 °C 19.1 °C 1017.2 hPa Calm     87% 0 mm
00:14 21.3 °C 19.2 °C 1017.2 hPa Calm     88% 0 mm
00:19 21.4 °C 19.4 °C 1017.2 hPa Calm   3.2 km/h 88% 0 mm
00:24 21.5 °C 19.4 °C 1017.5 hPa Calm   3.2 km/h 88% 0 mm
00:29 21.6 °C 19.5 °C 1017.5 hPa SW 1.6 km/h 4.8 km/h 88% 0 mm
00:34 21.7 °C 19.8 °C 1017.5 hPa SW 1.6 km/h 6.4 km/h 89% 0 mm
00:39 21.8 °C 19.9 °C 1017.5 hPa SW 1.6 km/h 8 km/h 89% 0 mm
00:44 21.9 °C 20 °C 1017.5 hPa Calm   3.2 km/h 89% 0 mm
00:49 21.8 °C 19.8 °C 1017.5 hPa Calm     88% 0 mm
00:54 21.7 °C 19.8 °C 1017.5 hPa Calm   1.6 km/h 89% 0 mm
00:59 21.6 °C 19.7 °C 1017.5 hPa Calm     89% 0 mm
01:04 21.3 °C 19.4 °C 1017.5 hPa Calm     89% 0 mm
01:09 21.3 °C 19.4 °C 1017.8 hPa Calm     89% 0 mm
01:14 21.2 °C 19.3 °C 1017.8 hPa Calm     89% 0 mm
01:19 21.1 °C 19.2 °C 1017.5 hPa Calm     89% 0 mm
01:24 21.1 °C 19.3 °C 1017.5 hPa Calm     90% 0 mm
01:29 20.9 °C 19.2 °C 1017.5 hPa Calm     90% 0 mm
01:34 20.8 °C 19.1 °C 1017.8 hPa Calm     90% 0 mm
01:39 20.7 °C 19 °C 1017.8 hPa Calm     90% 0 mm
01:44 20.7 °C 18.9 °C 1017.5 hPa Calm     90% 0 mm
01:49 20.6 °C 18.8 °C 1017.5 hPa Calm     90% 0 mm
01:54 20.6 °C 18.8 °C 1017.5 hPa Calm   1.6 km/h 90% 0 mm
01:59 20.4 °C 18.7 °C 1017.5 hPa South 4.8 km/h 4.8 km/h 90% 0 mm
02:04 20.5 °C 19 °C 1017.5 hPa SSW 1.6 km/h 4.8 km/h 91% 0 mm
02:09 20.4 °C 18.9 °C 1017.5 hPa Calm   4.8 km/h 91% 0 mm
02:14 20.4 °C 18.9 °C 1017.5 hPa Calm     91% 0 mm
02:19 20.4 °C 18.9 °C 1017.5 hPa Calm     91% 0 mm
02:24 20.3 °C 18.8 °C 1017.5 hPa Calm     91% 0 mm
02:29 20.3 °C 18.8 °C 1017.5 hPa Calm     91% 0 mm
02:34 20.3 °C 18.8 °C 1017.5 hPa Calm     91% 0 mm
02:39 20.2 °C 18.7 °C 1017.5 hPa Calm     91% 0 mm
02:44 20.1 °C 18.6 °C 1017.5 hPa Calm     91% 0 mm
02:49 19.9 °C 18.4 °C 1017.5 hPa Calm     91% 0 mm
02:54 19.9 °C 18.4 °C 1017.5 hPa Calm     91% 0 mm
02:59 19.8 °C 18.3 °C 1017.5 hPa Calm     91% 0 mm
03:04 19.7 °C 18.2 °C 1017.5 hPa Calm     91% 0 mm
03:09 19.7 °C 18.4 °C 1017.5 hPa Calm     92% 0 mm
03:14 19.7 °C 18.3 °C 1017.5 hPa Calm     92% 0 mm
03:19 19.6 °C 18.2 °C 1017.5 hPa Calm     92% 0 mm
03:24 19.6 °C 18.2 °C 1017.5 hPa Calm     92% 0 mm
03:29 19.4 °C 18.1 °C 1017.5 hPa Calm     92% 0 mm
03:34 19.4 °C 18.1 °C 1017.5 hPa Calm     92% 0 mm
03:39 19.3 °C 18 °C 1017.5 hPa Calm     92% 0 mm
03:44 19.3 °C 18 °C 1017.5 hPa Calm     92% 0 mm
03:49 19.3 °C 17.9 °C 1017.5 hPa Calm     92% 0 mm
03:54 19.3 °C 17.9 °C 1017.2 hPa Calm     92% 0 mm
03:59 19.2 °C 17.9 °C 1017.2 hPa Calm     92% 0 mm
04:04 19.3 °C 17.9 °C 1017.2 hPa Calm     92% 0 mm
04:09 19.1 °C 17.8 °C 1017.2 hPa Calm     92% 0 mm
04:14 19.1 °C 17.8 °C 1017.2 hPa Calm     92% 0 mm
04:19 19.1 °C 17.9 °C 1017.2 hPa Calm     93% 0 mm
04:24 19.1 °C 17.9 °C 1017.2 hPa Calm     93% 0 mm
04:29 19.2 °C 18 °C 1017.2 hPa Calm     93% 0 mm
04:34 19.2 °C 18 °C 1017.2 hPa Calm     93% 0 mm
04:39 19.2 °C 18 °C 1017.2 hPa Calm     93% 0 mm
04:44 19.1 °C 17.8 °C 1017.2 hPa Calm     92% 0 mm
04:49 19.2 °C 18 °C 1017.2 hPa Calm     93% 0 mm
04:54 19.2 °C 17.8 °C 1017.2 hPa Calm     92% 0 mm
04:59 19.2 °C 17.8 °C 1017.2 hPa Calm     92% 0 mm
05:04 19.1 °C 17.8 °C 1017.2 hPa Calm     92% 0 mm
05:09 19.1 °C 17.8 °C 1017.2 hPa Calm     92% 0 mm
05:14 19.1 °C 17.8 °C 1017.2 hPa Calm     92% 0 mm
05:19 19 °C 17.7 °C 1017.2 hPa Calm     92% 0 mm
05:24 18.9 °C 17.4 °C 1017.2 hPa Calm     91% 0 mm
05:29 18.8 °C 17.3 °C 1017.2 hPa Calm     91% 0 mm
05:34 18.9 °C 17.6 °C 1017.5 hPa Calm     92% 0 mm
05:39 18.9 °C 17.4 °C 1017.5 hPa Calm     91% 0 mm
05:44 18.8 °C 17.3 °C 1017.2 hPa Calm     91% 0 mm
05:49 18.7 °C 17.2 °C 1017.5 hPa Calm     91% 0 mm
05:54 18.7 °C 17.2 °C 1017.5 hPa Calm     91% 0 mm
05:59 18.7 °C 17.3 °C 1017.5 hPa Calm     92% 0 mm
06:04 18.7 °C 17.3 °C 1017.5 hPa Calm     92% 0 mm
06:09 18.7 °C 17.4 °C 1017.5 hPa Calm     92% 0 mm
06:14 18.7 °C 17.3 °C 1017.5 hPa Calm     92% 0 mm
06:19 18.8 °C 17.5 °C 1017.5 hPa Calm     92% 0 mm
06:24 18.9 °C 17.6 °C 1017.5 hPa Calm     92% 0 mm
06:29 19 °C 17.7 °C 1017.5 hPa Calm     92% 0 mm
06:34 19.1 °C 17.6 °C 1017.5 hPa Calm     91% 0 mm
06:39 19.2 °C 17.7 °C 1017.5 hPa Calm     91% 0 mm
06:44 19.2 °C 17.7 °C 1017.8 hPa Calm     91% 0 mm
06:49 19.2 °C 17.7 °C 1017.8 hPa Calm     91% 0 mm
06:54 19.2 °C 17.7 °C 1017.8 hPa Calm     91% 0 mm
06:59 19.3 °C 17.8 °C 1017.8 hPa Calm     91% 0 mm
07:04 19.4 °C 17.9 °C 1017.8 hPa Calm     91% 0 mm
07:09 19.5 °C 18 °C 1017.8 hPa Calm     91% 0 mm
07:14 19.6 °C 17.9 °C 1017.8 hPa Calm     90% 0 mm
07:19 19.8 °C 18.1 °C 1017.8 hPa Calm     90% 0 mm
07:24 20 °C 18.3 °C 1017.8 hPa Calm     90% 0 mm
07:29 20.2 °C 18.6 °C 1017.8 hPa Calm     90% 0 mm
07:34 20.5 °C 18.8 °C 1017.8 hPa Calm     90% 0 mm
07:39 20.7 °C 18.8 °C 1017.8 hPa Calm   1.6 km/h 89% 0 mm
07:44 20.9 °C 19 °C 1017.8 hPa Calm   1.6 km/h 89% 0 mm
07:49 21.1 °C 19 °C 1017.8 hPa Calm     88% 0 mm
07:54 21.3 °C 19.3 °C 1017.8 hPa Calm     88% 0 mm
07:59 21.4 °C 19.2 °C 1017.8 hPa Calm     87% 0 mm
08:04 21.6 °C 19.3 °C 1017.8 hPa Calm     87% 0 mm
08:09 21.8 °C 19.4 °C 1018.2 hPa Calm     86% 0 mm
08:14 22.1 °C 19.6 °C 1018.2 hPa Calm     86% 0 mm
08:19 22.4 °C 19.9 °C 1018.2 hPa Calm     86% 0 mm
08:24 22.7 °C 19.9 °C 1018.2 hPa Calm     84% 0 mm
08:29 22.9 °C 20.1 °C 1018.2 hPa Calm     84% 0 mm
08:34 22.9 °C 19.8 °C 1018.2 hPa Calm   6.4 km/h 83% 0 mm
08:39 23 °C 19.9 °C 1018.2 hPa SW 4.8 km/h 6.4 km/h 83% 0 mm
08:44 23.3 °C 19.9 °C 1018.2 hPa SW 3.2 km/h 8 km/h 81% 0 mm
08:49 23.7 °C 20.2 °C 1018.2 hPa WSW 3.2 km/h 8 km/h 81% 0 mm
08:54 23.7 °C 20 °C 1018.2 hPa WSW 3.2 km/h 9.7 km/h 80% 0 mm
08:59 23.9 °C 20 °C 1018.2 hPa WSW 3.2 km/h 9.7 km/h 79% 0 mm
09:04 23.9 °C 20.3 °C 1018.2 hPa WSW 3.2 km/h 8 km/h 80% 0 mm
09:09 23.9 °C 20.4 °C 1018.2 hPa SW 4.8 km/h 9.7 km/h 81% 0 mm
09:14 23.8 °C 20.3 °C 1017.8 hPa SSW 4.8 km/h 9.7 km/h 81% 0 mm
09:19 23.8 °C 19.9 °C 1017.8 hPa WSW 1.6 km/h 8 km/h 79% 0 mm
09:24 24.3 °C 20.6 °C 1017.8 hPa SW 4.8 km/h 8 km/h 80% 0 mm
09:29 24.4 °C 20.3 °C 1017.8 hPa WSW 4.8 km/h 9.7 km/h 78% 0 mm
09:34 24.4 °C 20.3 °C 1018.2 hPa SW 4.8 km/h 11.3 km/h 78% 0 mm
09:39 24.3 °C 20.2 °C 1017.8 hPa SW 9.7 km/h 12.9 km/h 78% 0 mm
09:44 24.4 °C 20.3 °C 1017.8 hPa SW 4.8 km/h 12.9 km/h 78% 0 mm
09:49 24.8 °C 20.3 °C 1017.8 hPa SW 6.4 km/h 12.9 km/h 76% 0 mm
09:54 24.7 °C 20.2 °C 1017.8 hPa SW 6.4 km/h 14.5 km/h 76% 0 mm
09:59 24.6 °C 20.1 °C 1018.2 hPa SW 8 km/h 14.5 km/h 76% 0 mm
10:04 24.9 °C 20.4 °C 1017.8 hPa SW 8 km/h 14.5 km/h 76% 0 mm
10:09 25 °C 20.5 °C 1017.8 hPa SW 6.4 km/h 14.5 km/h 76% 0 mm
10:14 24.8 °C 20.3 °C 1017.8 hPa SW 6.4 km/h 14.5 km/h 76% 0 mm
10:19 25.2 °C 20.3 °C 1017.8 hPa West 6.4 km/h 12.9 km/h 74% 0 mm
10:24 25.3 °C 20.7 °C 1017.8 hPa SW 4.8 km/h 11.3 km/h 76% 0 mm
10:29 25.3 °C 20.6 °C 1017.8 hPa West 8 km/h 12.9 km/h 75% 0 mm
10:34 25.6 °C 20.6 °C 1018.2 hPa WSW 1.6 km/h 12.9 km/h 74% 0 mm
10:39 25.7 °C 20.7 °C 1018.2 hPa WSW 4.8 km/h 12.9 km/h 74% 0 mm
10:44 25.7 °C 20.4 °C 1018.2 hPa SW 6.4 km/h 12.9 km/h 73% 0 mm
10:49 25.7 °C 20.7 °C 1018.2 hPa WSW 8 km/h 11.3 km/h 74% 0 mm
10:54 25.8 °C 20.3 °C 1018.2 hPa SW 6.4 km/h 14.5 km/h 72% 0 mm
10:59 26.2 °C 20.7 °C 1018.2 hPa WSW 6.4 km/h 14.5 km/h 72% 0 mm
11:04 26.4 °C 20.9 °C 1018.2 hPa WSW 6.4 km/h 12.9 km/h 72% 0 mm
11:09 26.4 °C 20.7 °C 1018.2 hPa WSW 4.8 km/h 12.9 km/h 71% 0 mm
11:14 26.4 °C 20.3 °C 1018.2 hPa WSW 6.4 km/h 14.5 km/h 69% 0 mm
11:19 26.3 °C 20.1 °C 1017.8 hPa SSW 6.4 km/h 12.9 km/h 69% 0 mm
11:24 26.6 °C 20.4 °C 1017.8 hPa SW 6.4 km/h 12.9 km/h 69% 0 mm
11:29 26.7 °C 20.7 °C 1017.8 hPa SW 6.4 km/h 9.7 km/h 70% 0 mm
11:34 26.9 °C 20.8 °C 1017.8 hPa SW 8 km/h 11.3 km/h 69% 0 mm
11:39 27.3 °C 20.7 °C 1017.8 hPa SSW 6.4 km/h 9.7 km/h 67% 0 mm
11:44 27.1 °C 19.9 °C 1017.8 hPa West 6.4 km/h 9.7 km/h 65% 0 mm
11:49 27.1 °C 20.4 °C 1017.8 hPa SSW 6.4 km/h 12.9 km/h 67% 0 mm
11:54 26.8 °C 20.7 °C 1017.8 hPa SW 6.4 km/h 12.9 km/h 69% 0 mm
11:59 27.2 °C 21 °C 1017.8 hPa SW 6.4 km/h 11.3 km/h 69% 0 mm
12:04 26.9 °C 20.1 °C 1017.8 hPa SW 6.4 km/h 12.9 km/h 66% 0 mm
12:09 27.1 °C 20.4 °C 1017.8 hPa WSW 4.8 km/h 12.9 km/h 67% 0 mm
12:14 27 °C 20.1 °C 1017.8 hPa SW 4.8 km/h 11.3 km/h 66% 0 mm
12:19 27.3 °C 20.6 °C 1017.8 hPa WSW 3.2 km/h 12.9 km/h 67% 0 mm
12:24 27.3 °C 20.4 °C 1017.8 hPa SW 4.8 km/h 8 km/h 66% 0 mm
12:29 27.6 °C 20.7 °C 1017.8 hPa WSW 4.8 km/h 11.3 km/h 66% 0 mm
12:34 27.3 °C 20.6 °C 1017.8 hPa WSW 6.4 km/h 12.9 km/h 67% 0 mm
12:39 27.5 °C 20.6 °C 1017.8 hPa SW 6.4 km/h 14.5 km/h 66% 0 mm
12:44 27.5 °C 20.1 °C 1017.8 hPa West 4.8 km/h 14.5 km/h 64% 0 mm
12:49 27.6 °C 20.7 °C 1017.8 hPa SW 4.8 km/h 9.7 km/h 66% 0 mm
12:54 27.9 °C 20.5 °C 1017.8 hPa WSW 6.4 km/h 14.5 km/h 64% 0 mm
12:59 27.7 °C 20.6 °C 1017.8 hPa WSW 6.4 km/h 14.5 km/h 65% 0 mm
13:04 27.9 °C 20.2 °C 1017.8 hPa WSW 9.7 km/h 16.1 km/h 63% 0 mm
13:09 27.8 °C 20.2 °C 1017.5 hPa SSW 4.8 km/h 16.1 km/h 63% 0 mm
13:14 28 °C 19.8 °C 1017.5 hPa SW 3.2 km/h 17.7 km/h 61% 0 mm
13:19 27.9 °C 19.4 °C 1017.5 hPa West 6.4 km/h 12.9 km/h 60% 0 mm
13:24 28.2 °C 19.7 °C 1017.5 hPa WSW 8 km/h 12.9 km/h 60% 0 mm
13:29 28.2 °C 19.1 °C 1017.5 hPa WSW 6.4 km/h 11.3 km/h 58% 0 mm
13:34 28.1 °C 19.8 °C 1017.5 hPa WSW 8 km/h 16.1 km/h 61% 0 mm
13:39 28.2 °C 19.7 °C 1017.2 hPa WSW 8 km/h 16.1 km/h 60% 0 mm
13:44 28.1 °C 19.9 °C 1017.5 hPa WSW 8 km/h 14.5 km/h 61% 0 mm
13:49 28.3 °C 20.3 °C 1017.2 hPa WSW 8 km/h 17.7 km/h 62% 0 mm
13:54 28.2 °C 19.7 °C 1017.2 hPa SW 8 km/h 14.5 km/h 60% 0 mm
13:59 28.2 °C 19.9 °C 1017.2 hPa SW 8 km/h 14.5 km/h 61% 0 mm
14:04 28.4 °C 19.9 °C 1017.2 hPa SW 8 km/h 16.1 km/h 60% 0 mm
14:09 28.2 °C 20.2 °C 1016.8 hPa South 11.3 km/h 14.5 km/h 62% 0 mm
14:14 28.2 °C 19.2 °C 1017.2 hPa SW 8 km/h 12.9 km/h 58% 0 mm
14:19 28.3 °C 19.6 °C 1017.2 hPa WSW 9.7 km/h 16.1 km/h 59% 0 mm
14:24 28.7 °C 19.6 °C 1017.2 hPa SW 16.1 km/h 16.1 km/h 58% 0 mm
14:29 28.4 °C 19.1 °C 1017.2 hPa SW 8 km/h 16.1 km/h 57% 0 mm
14:34 28.5 °C 19.2 °C 1017.2 hPa WSW 6.4 km/h 16.1 km/h 57% 0 mm
14:39 28.6 °C 19 °C 1016.8 hPa WSW 6.4 km/h 12.9 km/h 56% 0 mm
14:44 28.6 °C 19.2 °C 1016.8 hPa SSW 3.2 km/h 14.5 km/h 57% 0 mm
14:49 28.9 °C 18.1 °C 1016.8 hPa WSW 8 km/h 11.3 km/h 52% 0 mm
14:54 29.1 °C 18.3 °C 1016.5 hPa WSW 8 km/h 17.7 km/h 52% 0 mm
14:59 28.8 °C 18.8 °C 1016.5 hPa SW 6.4 km/h 17.7 km/h 55% 0 mm
15:04 29.2 °C 19.6 °C 1016.5 hPa WSW 6.4 km/h 12.9 km/h 56% 0 mm
15:09 28.9 °C 18.4 °C 1016.5 hPa SW 8 km/h 17.7 km/h 53% 0 mm
15:14 28.8 °C 18.6 °C 1016.5 hPa WSW 4.8 km/h 14.5 km/h 54% 0 mm
15:19 28.7 °C 18.5 °C 1016.5 hPa West 8 km/h 20.9 km/h 54% 0 mm
15:24 28.7 °C 18.7 °C 1016.5 hPa West 11.3 km/h 11.3 km/h 55% 0 mm
15:29 28.5 °C 18.9 °C 1016.5 hPa WSW 6.4 km/h 14.5 km/h 56% 0 mm
15:34 28.5 °C 18.6 °C 1016.5 hPa SW 6.4 km/h 14.5 km/h 55% 0 mm
15:39 28.2 °C 18.8 °C 1016.1 hPa SW 8 km/h 16.1 km/h 57% 0 mm
15:44 28.2 °C 19.4 °C 1016.1 hPa WSW 9.7 km/h 16.1 km/h 59% 0 mm
15:49 28.3 °C 19 °C 1016.1 hPa SW 8 km/h 17.7 km/h 57% 0 mm
15:55 28.3 °C 18.9 °C 1016.1 hPa WSW 8 km/h 17.7 km/h 57% 0 mm
16:00 28.3 °C 19.2 °C 1016.5 hPa WSW 8 km/h 17.7 km/h 58% 0 mm
16:09 28.2 °C 18.8 °C 1016.5 hPa WSW 3.2 km/h 14.5 km/h 57% 0 mm
16:14 27.8 °C 18.8 °C 1016.5 hPa SW 8 km/h 16.1 km/h 58% 0 mm
16:19 27.9 °C 19.4 °C 1016.5 hPa South 3.2 km/h 17.7 km/h 60% 0 mm
16:24 28.1 °C 19 °C 1016.5 hPa SW 9.7 km/h 17.7 km/h 58% 0 mm
16:34 27.2 °C 18.8 °C 1016.5 hPa WSW 4.8 km/h 16.1 km/h 60% 0 mm
16:39 27.2 °C 19 °C 1016.5 hPa WSW 9.7 km/h 16.1 km/h 61% 0 mm
16:44 27.4 °C 19.7 °C 1016.5 hPa WSW 8 km/h 17.7 km/h 63% 0 mm
16:49 27.5 °C 19.6 °C 1016.1 hPa WNW 6.4 km/h 16.1 km/h 62% 0 mm
16:54 27.7 °C 19.5 °C 1016.1 hPa SW 6.4 km/h 9.7 km/h 61% 0 mm
16:59 27.6 °C 19.6 °C 1015.8 hPa WSW 6.4 km/h 12.9 km/h 62% 0 mm
17:04 27.3 °C 19.9 °C 1015.8 hPa SW 8 km/h 16.1 km/h 64% 0 mm
17:09 27.4 °C 19.8 °C 1015.8 hPa WSW 8 km/h 16.1 km/h 63% 0 mm
17:14 27.4 °C 19.8 °C 1015.8 hPa SW 8 km/h 14.5 km/h 63% 0 mm
17:19 27.4 °C 20 °C 1015.5 hPa WSW 6.4 km/h 17.7 km/h 64% 0 mm
17:24 27.4 °C 19.8 °C 1015.8 hPa WSW 3.2 km/h 12.9 km/h 63% 0 mm
17:29 27.7 °C 19.2 °C 1015.8 hPa WSW 6.4 km/h 14.5 km/h 60% 0 mm
17:34 27.7 °C 19.4 °C 1015.8 hPa West 6.4 km/h 11.3 km/h 61% 0 mm
17:39 27.7 °C 19.2 °C 1015.5 hPa West 1.6 km/h 9.7 km/h 60% 0 mm
17:44 27.6 °C 19.6 °C 1015.8 hPa West 4.8 km/h 9.7 km/h 62% 0 mm
17:49 27.3 °C 18.8 °C 1015.5 hPa WNW 4.8 km/h 14.5 km/h 60% 0 mm
17:54 27.1 °C 18.9 °C 1015.5 hPa WSW 1.6 km/h 11.3 km/h 61% 0 mm
17:59 27.1 °C 18.9 °C 1015.5 hPa WSW 4.8 km/h 11.3 km/h 61% 0 mm
18:04 27 °C 18.8 °C 1015.5 hPa WSW 4.8 km/h 11.3 km/h 61% 0 mm
18:09 26.9 °C 19.1 °C 1015.5 hPa WSW 6.4 km/h 11.3 km/h 62% 0 mm
18:14 26.8 °C 18.4 °C 1015.8 hPa WSW 4.8 km/h 11.3 km/h 60% 0 mm
18:19 26.7 °C 18.3 °C 1015.8 hPa WSW 4.8 km/h 11.3 km/h 60% 0 mm
18:24 26.7 °C 18.8 °C 1015.8 hPa WSW 4.8 km/h 11.3 km/h 62% 0 mm
18:29 26.7 °C 18.8 °C 1015.5 hPa SW 3.2 km/h 9.7 km/h 62% 0 mm
18:34 26.6 °C 19.2 °C 1015.5 hPa WSW 3.2 km/h 11.3 km/h 64% 0 mm
18:39 26.4 °C 19.3 °C 1015.5 hPa SW 6.4 km/h 9.7 km/h 65% 0 mm
18:44 26.3 °C 19 °C 1015.8 hPa SSW 4.8 km/h 8 km/h 64% 0 mm
18:49 26.1 °C 19.5 °C 1015.8 hPa SW 1.6 km/h 9.7 km/h 67% 0 mm
18:54 26 °C 19.6 °C 1015.8 hPa SW 3.2 km/h 8 km/h 68% 0 mm
18:59 25.9 °C 20.1 °C 1015.8 hPa SSW 3.2 km/h 6.4 km/h 70% 0 mm
19:04 25.8 °C 20.1 °C 1015.8 hPa SW 3.2 km/h 11.3 km/h 71% 0 mm
19:09 25.6 °C 20.3 °C 1015.8 hPa SW 4.8 km/h 11.3 km/h 73% 0 mm
19:14 25.3 °C 19.9 °C 1015.8 hPa SW 4.8 km/h 11.3 km/h 72% 0 mm
19:19 25.2 °C 20.1 °C 1015.8 hPa SW 4.8 km/h 11.3 km/h 73% 0 mm
19:24 25.2 °C 19.8 °C 1015.8 hPa Calm   6.4 km/h 72% 0 mm
19:29 25.2 °C 19.3 °C 1015.8 hPa WSW 1.6 km/h 8 km/h 70% 0 mm
19:34 25.2 °C 19.6 °C 1015.8 hPa WSW 3.2 km/h 9.7 km/h 71% 0 mm
19:39 25.1 °C 19.4 °C 1015.8 hPa SW 8 km/h 8 km/h 71% 0 mm
19:44 25.1 °C 19.5 °C 1015.8 hPa WSW 4.8 km/h 8 km/h 71% 0 mm
19:49 25.1 °C 19.4 °C 1015.8 hPa SW 4.8 km/h 6.4 km/h 71% 0 mm
19:54 25 °C 19.6 °C 1015.8 hPa WSW 4.8 km/h 8 km/h 72% 0 mm
19:59 24.8 °C 19.7 °C 1015.8 hPa SW 3.2 km/h 8 km/h 73% 0 mm
20:04 24.8 °C 19.8 °C 1016.1 hPa SW 3.2 km/h 8 km/h 74% 0 mm
20:09 24.5 °C 19.1 °C 1016.1 hPa WSW 4.8 km/h 11.3 km/h 72% 0 mm
20:14 24.4 °C 19.4 °C 1016.1 hPa West 6.4 km/h 8 km/h 74% 0 mm
20:19 24.2 °C 19.5 °C 1016.1 hPa West 4.8 km/h 11.3 km/h 75% 0 mm
20:24 24.1 °C 19.8 °C 1016.1 hPa WSW 1.6 km/h 8 km/h 77% 0 mm
20:29 23.9 °C 19.9 °C 1016.5 hPa SW 3.2 km/h 9.7 km/h 78% 0 mm
20:34 23.8 °C 19.9 °C 1016.5 hPa SW 3.2 km/h 11.3 km/h 79% 0 mm
20:39 23.7 °C 20.1 °C 1016.5 hPa SW 3.2 km/h 11.3 km/h 80% 0 mm
20:44 23.6 °C 19.9 °C 1016.5 hPa SSW 3.2 km/h 8 km/h 80% 0 mm
20:49 23.6 °C 19.9 °C 1016.5 hPa Calm   6.4 km/h 80% 0 mm
20:54 23.5 °C 20.1 °C 1016.5 hPa WSW 1.6 km/h 4.8 km/h 81% 0 mm
20:59 23.3 °C 19.9 °C 1016.5 hPa SW 1.6 km/h 6.4 km/h 81% 0 mm
21:04 23.3 °C 20.1 °C 1016.8 hPa SW 3.2 km/h 8 km/h 82% 0 mm
21:09 23.3 °C 20.2 °C 1016.8 hPa Calm   6.4 km/h 83% 0 mm
21:14 23.2 °C 20.2 °C 1016.5 hPa SW 1.6 km/h 6.4 km/h 83% 0 mm
21:19 23.2 °C 20.1 °C 1016.5 hPa SW 1.6 km/h 4.8 km/h 83% 0 mm
21:24 23 °C 20.2 °C 1016.5 hPa SW 4.8 km/h 6.4 km/h 84% 0 mm
21:29 22.9 °C 20.1 °C 1016.5 hPa SW 1.6 km/h 6.4 km/h 84% 0 mm
21:34 22.9 °C 20.2 °C 1016.5 hPa SW 1.6 km/h 8 km/h 85% 0 mm
21:39 22.9 °C 20.2 °C 1016.5 hPa SSW 3.2 km/h 11.3 km/h 85% 0 mm
21:44 22.9 °C 20.2 °C 1016.5 hPa SSW 3.2 km/h 11.3 km/h 85% 0 mm
21:49 22.9 °C 20.2 °C 1016.1 hPa SSW 3.2 km/h 9.7 km/h 85% 0 mm
21:54 22.8 °C 20.2 °C 1016.1 hPa SSW 1.6 km/h 8 km/h 85% 0 mm
21:59 22.7 °C 19.9 °C 1016.1 hPa Calm   3.2 km/h 84% 0 mm
22:04 22.6 °C 19.8 °C 1016.1 hPa SW 1.6 km/h 4.8 km/h 84% 0 mm
22:09 22.6 °C 19.8 °C 1016.1 hPa Calm   4.8 km/h 84% 0 mm
22:14 22.6 °C 19.5 °C 1016.1 hPa Calm     83% 0 mm
22:19 22.6 °C 19.5 °C 1016.1 hPa Calm     83% 0 mm
22:24 22.4 °C 19.4 °C 1016.1 hPa Calm     83% 0 mm
22:29 22.4 °C 19.3 °C 1016.1 hPa Calm     83% 0 mm
22:34 22.2 °C 19.2 °C 1016.1 hPa Calm     83% 0 mm
22:39 22.2 °C 19.2 °C 1016.1 hPa Calm     83% 0 mm
22:44 22.1 °C 18.9 °C 1016.1 hPa Calm     82% 0 mm
22:49 22.1 °C 18.8 °C 1016.5 hPa Calm     82% 0 mm
22:54 22 °C 18.8 °C 1016.5 hPa Calm     82% 0 mm
22:59 22 °C 18.6 °C 1016.5 hPa Calm     81% 0 mm
23:04 21.9 °C 18.6 °C 1016.5 hPa Calm     81% 0 mm
23:09 21.8 °C 18.4 °C 1016.5 hPa Calm     81% 0 mm
23:14 21.8 °C 18.4 °C 1016.1 hPa Calm     81% 0 mm
23:19 21.7 °C 18.3 °C 1016.5 hPa Calm     81% 0 mm
23:24 21.6 °C 18.2 °C 1016.5 hPa Calm     81% 0 mm
23:29 21.6 °C 18 °C 1016.5 hPa Calm     80% 0 mm
23:34 21.6 °C 17.9 °C 1016.5 hPa Calm     80% 0 mm
23:39 21.5 °C 17.9 °C 1016.5 hPa Calm     80% 0 mm
23:44 21.4 °C 17.8 °C 1016.5 hPa Calm     80% 0 mm
23:49 21.3 °C 17.7 °C 1016.5 hPa Calm     80% 0 mm
23:54 21.2 °C 17.6 °C 1016.5 hPa Calm     80% 0 mm
23:59 21.1 °C 17.5 °C 1016.5 hPa Calm     80% 0 mm
Buffalo, New York, USA
Compliments of Weather Underground - 2.5 mb